Time;durP1;ratioP1;P1;durP2;ratioP2;P2;SDS_P1;SDS_P2;PMS_P1;PMS_P2;Temp;Humidity;BMP_temperature;BMP_pressure;BME280_temperature;BME280_humidity;BME280_pressure;Samples;Min_cycle;Max_cycle;Signal;HPM_P1;HPM_P2
2022/07/28 00:01:46;;;;;;;3.80;2.00;;;14.80;69.40;;;;;;5281495;28;20710;-44
2022/07/28 00:04:17;;;;;;;3.30;2.00;;;14.80;70.30;;;;;;5286507;28;20185;-45
2022/07/28 00:06:48;;;;;;;4.33;2.10;;;14.80;70.90;;;;;;5282801;28;20292;-46
2022/07/28 00:09:18;;;;;;;3.10;2.20;;;14.80;70.80;;;;;;5272581;28;20645;-46
2022/07/28 00:11:49;;;;;;;5.37;1.70;;;14.80;71.30;;;;;;5287350;27;20689;-44
2022/07/28 00:14:20;;;;;;;2.37;1.80;;;14.70;71.90;;;;;;5287801;28;20184;-45
2022/07/28 00:16:50;;;;;;;2.30;1.83;;;14.70;72.90;;;;;;5288120;28;20220;-44
2022/07/28 00:19:21;;;;;;;1.40;1.30;;;14.70;73.10;;;;;;5284882;28;20500;-48
2022/07/28 00:21:52;;;;;;;3.67;1.70;;;14.70;74.00;;;;;;5272720;28;20543;-44
2022/07/28 00:24:23;;;;;;;6.40;1.90;;;14.60;74.60;;;;;;5285121;27;20201;-45
2022/07/28 00:26:53;;;;;;;7.70;1.40;;;14.60;75.30;;;;;;5283831;27;20698;-45
2022/07/28 00:29:25;;;;;;;5.57;1.93;;;14.60;77.00;;;;;;5274978;28;20529;-44
2022/07/28 00:31:55;;;;;;;7.07;2.10;;;14.50;76.90;;;;;;5285098;28;20558;-44
2022/07/28 00:34:26;;;;;;;2.47;1.83;;;14.50;77.80;;;;;;5289745;28;20502;-43
2022/07/28 00:36:57;;;;;;;10.30;1.53;;;14.50;79.30;;;;;;5289936;27;20316;-45
2022/07/28 00:39:27;;;;;;;1.70;1.60;;;14.40;80.20;;;;;;5269505;28;20241;-44
2022/07/28 00:41:58;;;;;;;3.80;1.57;;;14.30;81.20;;;;;;5287255;27;20521;-49
2022/07/28 00:44:28;;;;;;;3.87;1.70;;;14.30;82.40;;;;;;5261068;28;20536;-44
2022/07/28 00:46:59;;;;;;;7.17;1.87;;;14.20;83.70;;;;;;5283039;28;20216;-44
2022/07/28 00:49:29;;;;;;;3.07;2.20;;;14.20;85.60;;;;;;5286783;27;20196;-45
2022/07/28 00:52:01;;;;;;;2.30;1.93;;;14.20;86.60;;;;;;5271288;28;20309;-45
2022/07/28 00:54:32;;;;;;;2.60;1.30;;;14.10;88.70;;;;;;5286672;27;20537;-47
2022/07/28 00:57:03;;;;;;;1.60;1.60;;;14.10;90.40;;;;;;5274861;28;20461;-46
2022/07/28 00:59:34;;;;;;;7.30;1.70;;;14.10;90.80;;;;;;5283336;27;20480;-45
2022/07/28 01:02:05;;;;;;;2.37;1.40;;;14.00;91.30;;;;;;5256673;28;20181;-46
2022/07/28 01:04:35;;;;;;;2.73;1.20;;;14.00;92.20;;;;;;5285806;28;20261;-43
2022/07/28 01:07:12;;;;;;;2.80;1.30;;;13.90;93.00;;;;;;5268920;28;20605;-44
2022/07/28 01:10:05;;;;;;;3.13;1.57;;;13.90;93.90;;;;;;5271646;28;20276;-45
2022/07/28 01:12:41;;;;;;;4.20;1.50;;;13.80;94.60;;;;;;5283139;28;21086;-45
2022/07/28 01:15:11;;;;;;;3.20;1.80;;;13.80;95.70;;;;;;5279316;27;20439;-45
2022/07/28 01:17:52;;;;;;;7.80;1.63;;;13.80;96.70;;;;;;5285456;28;20456;-46
2022/07/28 01:20:35;;;;;;;2.83;1.40;;;13.70;97.30;;;;;;5286817;28;20181;-44
2022/07/28 01:23:27;;;;;;;6.13;1.60;;;13.60;98.10;;;;;;5287199;27;20438;-48
2022/07/28 01:26:16;;;;;;;2.83;1.97;;;13.60;98.80;;;;;;5288987;27;20426;-47
2022/07/28 01:28:56;;;;;;;1.90;1.70;;;13.50;99.90;;;;;;5284830;28;20531;-45
2022/07/28 01:31:32;;;;;;;1.90;1.70;;;13.50;99.90;;;;;;5276613;27;20451;-45
2022/07/28 01:34:11;;;;;;;1.53;1.40;;;13.50;99.90;;;;;;5288342;28;20767;-47
2022/07/28 01:36:52;;;;;;;4.67;1.40;;;13.40;99.90;;;;;;5271430;28;20458;-44
2022/07/28 01:39:27;;;;;;;2.40;1.43;;;13.40;99.90;;;;;;5253923;28;20511;-50
2022/07/28 01:42:00;;;;;;;1.40;1.30;;;13.40;99.90;;;;;;5282459;27;20437;-46
2022/07/28 01:44:33;;;;;;;1.50;1.40;;;13.30;99.90;;;;;;5271334;28;20443;-47
2022/07/28 01:47:06;;;;;;;1.73;1.00;;;13.30;99.90;;;;;;5288316;27;20808;-47
2022/07/28 01:49:38;;;;;;;1.20;1.20;;;13.30;99.90;;;;;;5262574;28;20442;-47
2022/07/28 01:52:09;;;;;;;7.70;1.43;;;13.30;99.90;;;;;;5265817;28;20442;-47
2022/07/28 01:54:43;;;;;;;3.37;1.90;;;13.20;99.90;;;;;;5282171;28;20441;-47
2022/07/28 01:57:15;;;;;;;2.83;1.60;;;13.20;99.90;;;;;;5283883;28;20215;-47
2022/07/28 01:59:47;;;;;;;17.93;2.17;;;13.20;99.90;;;;;;5267780;28;20461;-47
2022/07/28 02:02:20;;;;;;;4.27;1.40;;;13.30;99.90;;;;;;5283605;28;20801;-47
2022/07/28 02:04:52;;;;;;;3.87;1.30;;;13.30;99.90;;;;;;5287866;28;20479;-47
2022/07/28 02:07:23;;;;;;;1.37;1.20;;;13.20;99.90;;;;;;5285830;28;20516;-47
2022/07/28 02:09:56;;;;;;;3.37;1.60;;;13.20;99.90;;;;;;5288204;28;20458;-47
2022/07/28 02:12:28;;;;;;;1.43;1.27;;;13.20;99.90;;;;;;5268736;28;20423;-47
2022/07/28 02:14:59;;;;;;;3.90;1.67;;;13.10;99.90;;;;;;5284270;28;20959;-46
2022/07/28 02:17:32;;;;;;;6.70;2.13;;;13.00;99.90;;;;;;5283546;28;20494;-47
2022/07/28 02:20:05;;;;;;;3.03;1.80;;;13.00;99.90;;;;;;5285488;28;20934;-47
2022/07/28 02:22:40;;;;;;;4.67;1.77;;;13.00;99.90;;;;;;5267468;28;20446;-47
2022/07/28 02:25:11;;;;;;;5.67;1.67;;;13.10;99.90;;;;;;5288800;28;20524;-48
2022/07/28 02:28:12;;;;;;;4.17;1.57;;;13.10;99.90;;;;;;5274483;28;20943;-47
2022/07/28 02:31:05;;;;;;;3.03;1.37;;;13.20;99.90;;;;;;5275117;27;20478;-48
2022/07/28 02:33:36;;;;;;;6.97;1.80;;;13.10;99.90;;;;;;5282465;28;20796;-46
2022/07/28 02:36:13;;;;;;;3.53;1.80;;;13.10;99.90;;;;;;5267739;28;20444;-46
2022/07/28 02:38:45;;;;;;;5.47;1.47;;;13.10;99.90;;;;;;5263643;28;20439;-47
2022/07/28 02:41:29;;;;;;;1.70;1.40;;;13.10;99.90;;;;;;5270074;28;20455;-47
2022/07/28 02:44:03;;;;;;;1.97;1.80;;;13.10;99.90;;;;;;5265780;28;20430;-47
2022/07/28 02:46:37;;;;;;;4.90;2.47;;;13.00;99.90;;;;;;5279092;27;20537;-47
2022/07/28 02:49:30;;;;;;;3.90;1.73;;;13.00;99.90;;;;;;5246268;28;20454;-47
2022/07/28 02:52:03;;;;;;;3.57;1.57;;;12.90;99.90;;;;;;5285073;28;20890;-46
2022/07/28 02:54:35;;;;;;;2.70;2.10;;;12.90;99.90;;;;;;5242864;28;20434;-47
2022/07/28 02:57:06;;;;;;;4.43;2.00;;;12.90;99.90;;;;;;5289310;27;20495;-47
2022/07/28 02:59:38;;;;;;;3.50;1.23;;;12.80;99.90;;;;;;5280774;28;20446;-46
2022/07/28 03:02:09;;;;;;;3.60;1.37;;;12.80;99.90;;;;;;5261777;28;20434;-46
2022/07/28 03:04:55;;;;;;;11.33;1.67;;;12.70;99.90;;;;;;5275890;28;20450;-46
2022/07/28 03:07:34;;;;;;;2.93;1.43;;;12.70;99.90;;;;;;5268004;28;20450;-47
2022/07/28 03:10:05;;;;;;;3.80;1.53;;;12.70;99.90;;;;;;5281632;28;20455;-45
2022/07/28 03:12:36;;;;;;;3.27;1.40;;;12.70;99.90;;;;;;5271094;28;20439;-49
2022/07/28 03:15:07;;;;;;;8.40;1.30;;;12.70;99.90;;;;;;5269330;28;20319;-46
2022/07/28 03:17:37;;;;;;;6.77;1.70;;;12.70;99.90;;;;;;5253273;28;20219;-46
2022/07/28 03:20:09;;;;;;;3.70;1.77;;;12.80;99.90;;;;;;5268267;28;20550;-47
2022/07/28 03:22:40;;;;;;;11.17;1.50;;;12.70;99.90;;;;;;5282125;28;20195;-45
2022/07/28 03:25:26;;;;;;;2.10;1.60;;;12.70;99.90;;;;;;5269076;28;20442;-43
2022/07/28 03:27:59;;;;;;;2.73;1.50;;;12.70;99.90;;;;;;5284727;28;20212;-49
2022/07/28 03:30:38;;;;;;;2.10;1.33;;;12.60;99.90;;;;;;5275872;28;20463;-46
2022/07/28 03:33:09;;;;;;;1.40;1.30;;;12.60;99.90;;;;;;5282182;28;20438;-48
2022/07/28 03:35:44;;;;;;;1.73;1.60;;;12.60;99.90;;;;;;5266390;28;20438;-49
2022/07/28 03:38:21;;;;;;;1.77;1.53;;;12.60;99.90;;;;;;5255500;28;20536;-49
2022/07/28 03:40:54;;;;;;;2.57;1.33;;;12.60;99.90;;;;;;5276448;28;20434;-49
2022/07/28 03:43:27;;;;;;;2.57;1.43;;;12.60;99.90;;;;;;5279983;28;20481;-50
2022/07/28 03:45:57;;;;;;;2.20;1.50;;;12.60;99.90;;;;;;5284007;28;20519;-49
2022/07/28 03:48:31;;;;;;;2.13;1.20;;;12.70;99.90;;;;;;5283382;28;20494;-48
2022/07/28 03:51:02;;;;;;;1.43;1.33;;;12.70;99.90;;;;;;5275490;28;20212;-49
2022/07/28 03:53:33;;;;;;;1.40;1.40;;;12.70;99.90;;;;;;5282447;28;20438;-48
2022/07/28 03:56:03;;;;;;;1.57;1.47;;;12.70;99.90;;;;;;5266105;28;20541;-49
2022/07/28 03:58:34;;;;;;;2.33;1.70;;;12.70;99.90;;;;;;5281037;28;20177;-48
2022/07/28 04:01:04;;;;;;;11.67;1.50;;;12.70;99.90;;;;;;5269607;28;20210;-49
2022/07/28 04:03:35;;;;;;;1.70;1.60;;;12.80;99.90;;;;;;5267599;28;20517;-49
2022/07/28 04:06:06;;;;;;;3.77;1.70;;;12.90;99.90;;;;;;5247193;28;20211;-49
2022/07/28 04:08:36;;;;;;;4.13;2.20;;;12.90;99.90;;;;;;5280587;28;20194;-51
2022/07/28 04:11:07;;;;;;;8.10;2.33;;;13.00;99.90;;;;;;5285188;28;20213;-49
2022/07/28 04:13:37;;;;;;;3.27;1.67;;;13.00;99.90;;;;;;5280370;28;20238;-49
2022/07/28 04:16:08;;;;;;;4.00;1.90;;;13.20;99.90;;;;;;5268686;28;20207;-50
2022/07/28 04:18:39;;;;;;;3.37;2.10;;;13.30;99.90;;;;;;5279512;28;20177;-48
2022/07/28 04:21:09;;;;;;;3.93;1.67;;;13.40;99.90;;;;;;5278753;28;20261;-50
2022/07/28 04:23:40;;;;;;;10.33;2.00;;;13.50;99.90;;;;;;5282643;28;20193;-45
2022/07/28 04:26:10;;;;;;;2.00;1.77;;;13.50;99.90;;;;;;5257603;28;20565;-45
2022/07/28 04:28:41;;;;;;;1.87;1.77;;;13.60;99.90;;;;;;5269340;28;20197;-49
2022/07/28 04:31:12;;;;;;;6.97;1.77;;;13.70;99.90;;;;;;5277738;28;20207;-49
2022/07/28 04:33:42;;;;;;;1.97;1.47;;;13.80;99.90;;;;;;5263741;28;20193;-45
2022/07/28 04:36:13;;;;;;;2.00;1.67;;;13.90;99.90;;;;;;5267712;28;20204;-50
2022/07/28 04:38:44;;;;;;;3.50;1.70;;;14.00;99.90;;;;;;5264014;28;20178;-48
2022/07/28 04:41:14;;;;;;;2.67;2.03;;;14.10;99.90;;;;;;5257871;28;20230;-47
2022/07/28 04:43:45;;;;;;;3.37;1.40;;;14.10;99.90;;;;;;5280484;28;20271;-49
2022/07/28 04:46:15;;;;;;;4.00;1.80;;;14.20;99.90;;;;;;5279301;28;20201;-50
2022/07/28 04:48:46;;;;;;;5.50;1.70;;;14.30;99.90;;;;;;5276615;28;20200;-50
2022/07/28 04:51:17;;;;;;;7.40;2.70;;;14.40;99.90;;;;;;5280326;28;20334;-48
2022/07/28 04:53:47;;;;;;;3.47;2.27;;;14.60;99.90;;;;;;5284529;27;20641;-50
2022/07/28 04:56:18;;;;;;;12.20;2.20;;;14.70;99.90;;;;;;5271330;28;20206;-47
2022/07/28 04:58:48;;;;;;;2.53;1.50;;;14.90;99.90;;;;;;5283791;27;20689;-48
2022/07/28 05:01:20;;;;;;;3.53;1.70;;;15.00;99.90;;;;;;5269895;28;20315;-46
2022/07/28 05:03:51;;;;;;;4.10;1.90;;;15.40;99.90;;;;;;5261165;27;20386;-46
2022/07/28 05:06:21;;;;;;;4.90;1.73;;;16.10;99.90;;;;;;5259153;27;20476;-51
2022/07/28 05:08:52;;;;;;;2.33;1.73;;;17.20;99.90;;;;;;5282761;27;20656;-50
2022/07/28 05:11:22;;;;;;;2.77;1.60;;;18.00;97.80;;;;;;5274329;28;20222;-49
2022/07/28 05:13:53;;;;;;;3.80;2.37;;;18.80;92.50;;;;;;5271082;28;20184;-50
2022/07/28 05:16:23;;;;;;;9.50;1.97;;;19.60;87.00;;;;;;5280167;27;20229;-49
2022/07/28 05:18:54;;;;;;;4.63;2.00;;;20.70;78.30;;;;;;5265035;28;20185;-50
2022/07/28 05:21:25;;;;;;;3.60;2.13;;;21.80;66.80;;;;;;5277522;27;20185;-49
2022/07/28 05:23:55;;;;;;;7.60;1.80;;;22.90;59.40;;;;;;5288423;27;20193;-49
2022/07/28 05:26:27;;;;;;;2.80;1.83;;;23.70;56.30;;;;;;5269982;28;20209;-49
2022/07/28 05:28:58;;;;;;;4.17;1.50;;;24.90;52.50;;;;;;5288513;28;20186;-50
2022/07/28 05:31:28;;;;;;;3.03;2.10;;;26.00;48.00;;;;;;5285262;28;20455;-49
2022/07/28 05:33:59;;;;;;;1.63;1.33;;;26.90;44.70;;;;;;5261655;28;20205;-49
2022/07/28 05:36:29;;;;;;;7.13;1.60;;;27.70;43.40;;;;;;5271490;28;20193;-49
2022/07/28 05:39:00;;;;;;;2.00;1.47;;;28.60;40.80;;;;;;5284962;27;20181;-48
2022/07/28 05:41:31;;;;;;;2.40;1.73;;;29.40;38.70;;;;;;5279226;28;20665;-48
2022/07/28 05:44:01;;;;;;;3.13;1.80;;;29.70;38.30;;;;;;5278928;27;20627;-49
2022/07/28 05:46:32;;;;;;;4.33;1.53;;;30.10;37.10;;;;;;5278157;28;20209;-47
2022/07/28 05:49:04;;;;;;;1.90;1.40;;;29.90;36.10;;;;;;5273175;27;20227;-51
2022/07/28 05:51:34;;;;;;;1.60;1.30;;;30.50;36.10;;;;;;5283355;28;20216;-50
2022/07/28 05:54:05;;;;;;;1.33;1.17;;;30.80;35.80;;;;;;5275995;27;20439;-49
2022/07/28 05:56:35;;;;;;;2.57;1.47;;;30.80;34.60;;;;;;5269193;28;20200;-50
2022/07/28 05:59:09;;;;;;;3.50;1.40;;;30.10;33.90;;;;;;5276367;28;20211;-48
2022/07/28 06:01:39;;;;;;;3.90;1.50;;;30.30;34.70;;;;;;5279101;28;20278;-47
2022/07/28 06:04:10;;;;;;;1.90;0.90;;;30.60;34.40;;;;;;5283283;27;20430;-48
2022/07/28 06:06:40;;;;;;;2.60;1.83;;;30.80;33.20;;;;;;5255455;28;20661;-48
2022/07/28 06:09:11;;;;;;;3.40;1.40;;;30.50;33.80;;;;;;5264334;28;20752;-48
2022/07/28 06:11:42;;;;;;;4.10;1.10;;;30.90;32.60;;;;;;5280971;28;20254;-48
2022/07/28 06:14:12;;;;;;;2.37;1.17;;;31.20;32.50;;;;;;5280594;27;20200;-47
2022/07/28 06:16:43;;;;;;;2.30;1.60;;;32.10;31.70;;;;;;5278208;27;20204;-49
2022/07/28 06:19:14;;;;;;;1.33;1.23;;;33.10;30.00;;;;;;5277206;27;20205;-50
2022/07/28 06:21:46;;;;;;;1.17;1.13;;;33.40;29.90;;;;;;5283962;28;20260;-49
2022/07/28 06:24:17;;;;;;;1.73;1.27;;;33.90;28.80;;;;;;5278115;27;20176;-50
2022/07/28 06:26:47;;;;;;;1.40;1.03;;;33.90;28.40;;;;;;5280292;27;20230;-51
2022/07/28 06:29:19;;;;;;;2.00;1.33;;;33.80;28.60;;;;;;5269020;28;20215;-49
2022/07/28 06:31:50;;;;;;;1.53;1.30;;;34.10;28.30;;;;;;5287482;27;20276;-50
2022/07/28 06:34:20;;;;;;;2.10;0.87;;;34.20;28.30;;;;;;5274955;27;20264;-48
2022/07/28 06:36:51;;;;;;;1.17;1.07;;;34.00;28.50;;;;;;5277711;27;20200;-50
2022/07/28 06:39:22;;;;;;;4.20;1.53;;;34.10;27.80;;;;;;5263386;28;20240;-49
2022/07/28 06:41:52;;;;;;;3.27;1.00;;;34.10;27.90;;;;;;5278486;28;20498;-51
2022/07/28 06:44:23;;;;;;;0.97;0.83;;;33.80;28.10;;;;;;5267333;28;20188;-48
2022/07/28 06:46:53;;;;;;;1.53;1.40;;;34.00;28.20;;;;;;5265483;28;20244;-50
2022/07/28 06:49:24;;;;;;;2.17;1.23;;;34.30;27.70;;;;;;5283668;27;20636;-51
2022/07/28 06:51:55;;;;;;;7.53;1.40;;;33.90;27.60;;;;;;5268404;28;20207;-50
2022/07/28 06:54:26;;;;;;;3.00;1.43;;;33.70;28.20;;;;;;5265618;28;20184;-50
2022/07/28 06:56:56;;;;;;;3.50;1.20;;;33.70;27.60;;;;;;5278395;27;20257;-48
2022/07/28 06:59:27;;;;;;;1.27;1.00;;;33.60;27.90;;;;;;5258290;28;20250;-49
2022/07/28 07:02:00;;;;;;;2.40;1.40;;;33.80;27.80;;;;;;5280814;28;20219;-51
2022/07/28 07:04:32;;;;;;;1.43;1.33;;;33.70;28.10;;;;;;5288464;27;20183;-48
2022/07/28 07:07:03;;;;;;;4.10;1.70;;;33.60;28.00;;;;;;5273955;28;20212;-47
2022/07/28 07:09:33;;;;;;;1.10;1.10;;;33.30;28.20;;;;;;5283433;28;20192;-49
2022/07/28 07:12:05;;;;;;;2.37;1.27;;;31.80;29.00;;;;;;5265338;28;20634;-50
2022/07/28 07:14:35;;;;;;;4.70;1.40;;;30.20;31.00;;;;;;5291110;27;20184;-50
2022/07/28 07:17:06;;;;;;;1.53;1.37;;;30.50;31.80;;;;;;5275511;27;20957;-51
2022/07/28 07:19:37;;;;;;;4.03;1.30;;;31.20;30.90;;;;;;5284119;27;20533;-51
2022/07/28 07:22:08;;;;;;;2.23;1.60;;;30.80;30.20;;;;;;5273422;27;20228;-48
2022/07/28 07:24:38;;;;;;;3.67;1.67;;;30.80;31.30;;;;;;5278597;28;20439;-50
2022/07/28 07:27:09;;;;;;;1.17;1.07;;;31.60;30.00;;;;;;5284635;28;20263;-52
2022/07/28 07:29:40;;;;;;;1.60;1.33;;;32.60;29.10;;;;;;5272523;28;20191;-48
2022/07/28 07:32:10;;;;;;;1.90;1.40;;;33.10;28.70;;;;;;5262893;28;20212;-49
2022/07/28 07:34:41;;;;;;;3.67;1.93;;;33.50;28.20;;;;;;5278561;27;20220;-51
2022/07/28 07:37:13;;;;;;;1.87;1.10;;;33.60;27.70;;;;;;5281712;28;20245;-53
2022/07/28 07:39:43;;;;;;;5.57;3.60;;;33.10;27.70;;;;;;5289986;27;20177;-51
2022/07/28 07:42:14;;;;;;;1.73;1.20;;;33.90;27.80;;;;;;5282295;28;20479;-49
2022/07/28 07:44:45;;;;;;;2.07;1.40;;;33.80;27.20;;;;;;5284737;28;20211;-51
2022/07/28 07:47:15;;;;;;;7.67;2.00;;;33.40;27.40;;;;;;5265278;28;20215;-52
2022/07/28 07:49:46;;;;;;;4.03;1.40;;;32.30;27.60;;;;;;5260515;28;20176;-51
2022/07/28 07:52:17;;;;;;;13.77;1.60;;;30.60;29.60;;;;;;5265456;28;20207;-52
2022/07/28 07:54:47;;;;;;;5.80;1.33;;;30.30;30.70;;;;;;5276953;28;20177;-51
2022/07/28 07:57:18;;;;;;;6.30;1.80;;;30.70;30.10;;;;;;5281042;28;20288;-50
2022/07/28 07:59:48;;;;;;;3.30;1.47;;;30.60;29.70;;;;;;5282661;28;20181;-53
2022/07/28 08:02:19;;;;;;;2.20;1.33;;;29.00;32.00;;;;;;5284012;28;20211;-53
2022/07/28 08:04:50;;;;;;;1.47;1.37;;;29.00;32.20;;;;;;5253107;28;20173;-51
2022/07/28 08:07:20;;;;;;;5.40;1.70;;;29.00;32.60;;;;;;5283464;28;20217;-51
2022/07/28 08:09:51;;;;;;;1.57;1.57;;;28.40;33.20;;;;;;5288330;28;20176;-51
2022/07/28 08:12:21;;;;;;;5.93;1.47;;;27.60;34.20;;;;;;5286268;28;20560;-52
2022/07/28 08:14:53;;;;;;;2.43;1.50;;;27.60;34.30;;;;;;5278625;28;20177;-52
2022/07/28 08:17:23;;;;;;;1.47;1.37;;;28.70;33.30;;;;;;5264217;28;20201;-51
2022/07/28 08:19:54;;;;;;;1.63;1.50;;;29.30;32.30;;;;;;5277539;28;20430;-52
2022/07/28 08:22:25;;;;;;;2.50;1.33;;;29.10;31.30;;;;;;5267527;28;20169;-50
2022/07/28 08:24:59;;;;;;;2.90;1.40;;;28.50;32.00;;;;;;5281719;28;20548;-53
2022/07/28 08:27:30;;;;;;;3.47;1.27;;;28.60;32.20;;;;;;5280725;27;20208;-52
2022/07/28 08:30:01;;;;;;;4.33;1.33;;;29.00;32.40;;;;;;5269979;27;20536;-52
2022/07/28 08:32:32;;;;;;;5.00;1.77;;;28.70;32.60;;;;;;5261041;28;20453;-51
2022/07/28 08:35:03;;;;;;;4.50;1.57;;;28.80;32.90;;;;;;5273580;28;20932;-52
2022/07/28 08:37:34;;;;;;;2.37;1.33;;;28.90;32.60;;;;;;5285881;27;20205;-51
2022/07/28 08:40:10;;;;;;;2.53;1.50;;;29.20;32.70;;;;;;5281955;27;20452;-53
2022/07/28 08:43:08;;;;;;;2.50;1.80;;;29.50;31.60;;;;;;5285467;27;20177;-51
2022/07/28 08:45:40;;;;;;;2.00;0.93;;;30.10;31.10;;;;;;5286315;28;20515;-50
2022/07/28 08:48:13;;;;;;;2.83;1.53;;;30.40;30.10;;;;;;5284884;28;20454;-49
2022/07/28 08:50:44;;;;;;;8.57;1.50;;;30.50;30.00;;;;;;5289319;27;20867;-50
2022/07/28 08:53:17;;;;;;;3.40;1.17;;;31.20;29.50;;;;;;5247858;28;20439;-49
2022/07/28 08:55:48;;;;;;;1.17;1.13;;;30.90;29.50;;;;;;5270572;28;20494;-51
2022/07/28 08:58:19;;;;;;;4.00;1.57;;;30.20;30.00;;;;;;5285744;27;20429;-53
2022/07/28 09:00:50;;;;;;;1.07;0.90;;;29.20;30.50;;;;;;5283858;27;20458;-51
2022/07/28 09:03:21;;;;;;;1.20;1.10;;;27.80;31.70;;;;;;5282235;27;20434;-48
2022/07/28 09:05:53;;;;;;;7.70;1.00;;;26.40;33.20;;;;;;5279458;27;20748;-52
2022/07/28 09:08:24;;;;;;;2.40;1.27;;;25.50;35.10;;;;;;5285319;28;20534;-53
2022/07/28 09:10:54;;;;;;;6.33;1.57;;;24.90;36.80;;;;;;5278124;27;20989;-50
2022/07/28 09:13:25;;;;;;;2.73;1.03;;;24.80;37.40;;;;;;5286495;27;20572;-50
2022/07/28 09:15:56;;;;;;;1.20;1.20;;;24.90;37.60;;;;;;5282645;27;20181;-50
2022/07/28 09:18:27;;;;;;;4.80;1.50;;;24.50;37.50;;;;;;5239521;28;20525;-51
2022/07/28 09:20:57;;;;;;;4.30;2.00;;;24.50;38.60;;;;;;5278142;28;20490;-51
2022/07/28 09:23:42;;;;;;;4.03;1.90;;;24.50;38.80;;;;;;5272997;28;20189;-51
2022/07/28 09:26:14;;;;;;;2.23;1.20;;;24.30;38.60;;;;;;5299319;22;20224;-54
2022/07/28 09:28:56;;;;;;;1.73;1.63;;;24.20;39.00;;;;;;5243641;28;20799;-51
2022/07/28 09:31:29;;;;;;;3.80;1.20;;;24.40;39.10;;;;;;5231904;28;20464;-51
2022/07/28 09:34:04;;;;;;;8.50;2.17;;;24.00;39.30;;;;;;5234382;28;20919;-51
2022/07/28 09:36:40;;;;;;;12.50;1.80;;;23.70;39.90;;;;;;5234000;28;20449;-51
2022/07/28 09:39:10;;;;;;;6.90;1.57;;;23.50;40.10;;;;;;5216544;28;20458;-51
2022/07/28 09:41:53;;;;;;;2.60;1.33;;;23.30;40.70;;;;;;5224822;28;20970;-51
2022/07/28 09:44:28;;;;;;;9.73;1.70;;;23.70;40.80;;;;;;5230575;28;20178;-52
2022/07/28 09:46:59;;;;;;;2.40;1.27;;;24.30;40.10;;;;;;5225493;28;20452;-51
2022/07/28 09:49:41;;;;;;;2.20;1.10;;;24.30;39.60;;;;;;5229553;28;20777;-53
2022/07/28 09:52:12;;;;;;;3.50;1.20;;;24.10;39.10;;;;;;5218047;28;20218;-53
2022/07/28 09:55:02;;;;;;;9.13;1.20;;;23.80;39.30;;;;;;5227439;28;20448;-52
2022/07/28 09:57:35;;;;;;;5.40;1.40;;;24.00;39.30;;;;;;5217675;28;20206;-51
2022/07/28 10:00:10;;;;;;;7.47;1.80;;;23.90;39.80;;;;;;5227720;28;20468;-53
2022/07/28 10:02:48;;;;;;;3.63;1.67;;;23.90;39.90;;;;;;5220861;28;20494;-53
2022/07/28 10:05:19;;;;;;;3.00;1.43;;;23.70;39.70;;;;;;5226122;28;20444;-51
2022/07/28 10:07:49;;;;;;;3.20;1.10;;;23.50;40.10;;;;;;5219586;28;20465;-51
2022/07/28 10:10:20;;;;;;;1.47;1.37;;;22.80;40.90;;;;;;5225452;28;20203;-52
2022/07/28 10:13:04;;;;;;;7.20;2.20;;;22.40;41.90;;;;;;5240119;28;20179;-53
2022/07/28 10:18:23;;;;;;;8.90;1.50;;;22.40;41.80;;;;;;5215285;28;20450;-52
2022/07/28 10:20:54;;;;;;;3.47;1.10;;;22.50;41.80;;;;;;5229404;28;20727;-51
2022/07/28 10:23:25;;;;;;;1.73;1.63;;;22.40;42.10;;;;;;5225794;28;20193;-51
2022/07/28 10:25:57;;;;;;;2.20;1.13;;;22.40;42.30;;;;;;5228028;28;20211;-53
2022/07/28 10:28:30;;;;;;;1.90;1.40;;;22.50;42.30;;;;;;5224883;28;20705;-52
2022/07/28 10:31:01;;;;;;;6.20;1.60;;;22.60;42.70;;;;;;5234307;28;20545;-51
2022/07/28 10:33:33;;;;;;;3.33;3.10;;;22.70;42.20;;;;;;5224405;28;20429;-50
2022/07/28 10:36:05;;;;;;;2.37;2.23;;;22.80;42.40;;;;;;5212819;28;20909;-51
2022/07/28 10:38:36;;;;;;;5.00;1.60;;;22.60;42.20;;;;;;5217462;28;20444;-52
2022/07/28 10:41:08;;;;;;;1.17;1.07;;;22.40;42.70;;;;;;5220262;28;20441;-51
2022/07/28 10:43:40;;;;;;;1.10;1.00;;;22.30;43.30;;;;;;5213207;28;20183;-52
2022/07/28 10:46:11;;;;;;;3.93;1.27;;;22.10;43.30;;;;;;5229698;28;20437;-52
2022/07/28 10:48:43;;;;;;;1.73;1.63;;;21.80;43.60;;;;;;5228414;28;20540;-52
2022/07/28 10:51:14;;;;;;;4.93;1.03;;;21.80;44.10;;;;;;5223525;28;20880;-52
2022/07/28 10:53:52;;;;;;;5.03;1.80;;;21.90;43.60;;;;;;5216852;28;20442;-52
2022/07/28 10:56:33;;;;;;;1.30;1.30;;;22.20;43.60;;;;;;5234833;28;20183;-52
2022/07/28 10:59:47;;;;;;;1.67;1.57;;;22.30;43.10;;;;;;5220138;28;20555;-51
2022/07/28 11:02:44;;;;;;;8.30;2.50;;;22.50;42.80;;;;;;5240013;28;20444;-51
2022/07/28 11:05:31;;;;;;;1.40;0.97;;;22.60;42.70;;;;;;5236448;28;20957;-52
2022/07/28 11:08:05;;;;;;;4.53;1.77;;;22.70;41.70;;;;;;5222082;28;20468;-52
2022/07/28 11:11:02;;;;;;;1.47;1.47;;;22.90;41.90;;;;;;5215274;28;20458;-52
2022/07/28 11:13:34;;;;;;;11.00;2.93;;;23.00;42.30;;;;;;5219786;28;20455;-51
2022/07/28 11:16:17;;;;;;;4.57;2.10;;;23.30;41.40;;;;;;5215482;28;20973;-51
2022/07/28 11:19:05;;;;;;;3.40;3.10;;;23.20;39.30;;;;;;5228907;28;20495;-53
2022/07/28 11:21:56;;;;;;;10.37;2.77;;;23.40;40.00;;;;;;5218871;28;20437;-53
2022/07/28 11:24:56;;;;;;;5.33;2.50;;;23.60;39.70;;;;;;5231367;28;20442;-53
2022/07/28 11:27:44;;;;;;;9.70;4.97;;;23.70;38.60;;;;;;5214130;28;20471;-53
2022/07/28 11:30:15;;;;;;;2.10;1.63;;;23.10;39.60;;;;;;5238301;28;20436;-51
2022/07/28 11:32:54;;;;;;;3.03;1.00;;;22.90;40.10;;;;;;5238702;28;20498;-52
2022/07/28 11:35:27;;;;;;;2.80;1.27;;;22.90;40.30;;;;;;5241687;28;20182;-53
2022/07/28 11:38:00;;;;;;;1.73;1.40;;;22.60;40.40;;;;;;5240270;28;20461;-51
2022/07/28 11:40:39;;;;;;;1.93;1.30;;;22.30;40.60;;;;;;5242516;28;20452;-51
2022/07/28 11:43:39;;;;;;;5.10;1.80;;;22.20;41.50;;;;;;5239093;28;20998;-52
2022/07/28 11:46:10;;;;;;;1.57;1.17;;;22.10;41.90;;;;;;5236601;28;20444;-51
2022/07/28 11:48:43;;;;;;;4.93;1.50;;;22.10;42.10;;;;;;5238674;28;20912;-52
2022/07/28 11:51:14;;;;;;;2.83;1.43;;;22.20;41.90;;;;;;5225736;28;20209;-51
2022/07/28 11:53:51;;;;;;;6.33;1.73;;;22.30;42.40;;;;;;5232287;28;20441;-53
2022/07/28 11:56:25;;;;;;;2.60;1.70;;;22.50;41.60;;;;;;5201195;28;20493;-52
2022/07/28 11:59:01;;;;;;;9.47;1.90;;;22.80;41.50;;;;;;5235075;28;20447;-52
2022/07/28 12:01:34;;;;;;;5.00;1.57;;;23.00;41.40;;;;;;5237246;28;20829;-52
2022/07/28 12:04:13;;;;;;;2.37;1.70;;;23.10;40.40;;;;;;5245537;28;20458;-53
2022/07/28 12:06:45;;;;;;;1.67;1.10;;;23.10;39.80;;;;;;5240657;28;20464;-53
2022/07/28 12:09:16;;;;;;;2.07;1.53;;;22.70;40.40;;;;;;5247907;28;20436;-51
2022/07/28 12:11:52;;;;;;;4.83;2.43;;;22.60;40.60;;;;;;5220512;28;20456;-51
2022/07/28 12:14:27;;;;;;;8.13;2.97;;;22.80;41.50;;;;;;5243805;28;20485;-53
2022/07/28 12:16:58;;;;;;;4.17;1.60;;;22.90;41.60;;;;;;5243554;28;21189;-53
2022/07/28 12:19:30;;;;;;;2.87;1.30;;;22.90;40.60;;;;;;5245101;28;20527;-53
2022/07/28 12:22:01;;;;;;;6.47;1.77;;;22.70;40.50;;;;;;5228021;28;20212;-53
2022/07/28 12:24:33;;;;;;;1.63;1.30;;;22.70;40.70;;;;;;5249055;28;20435;-53
2022/07/28 12:27:04;;;;;;;1.63;1.20;;;22.80;40.50;;;;;;5229704;28;20219;-52
2022/07/28 12:29:35;;;;;;;1.27;1.10;;;23.00;40.30;;;;;;5247780;28;20454;-54
2022/07/28 12:32:08;;;;;;;3.70;1.20;;;22.90;39.50;;;;;;5228227;28;20205;-51
2022/07/28 12:34:39;;;;;;;3.80;1.27;;;23.00;39.70;;;;;;5230555;28;20451;-52
2022/07/28 12:37:12;;;;;;;2.20;2.00;;;22.90;39.50;;;;;;5249734;28;20452;-52
2022/07/28 12:39:49;;;;;;;3.33;1.37;;;22.90;39.70;;;;;;5248539;28;20505;-51
2022/07/28 12:42:19;;;;;;;3.03;1.13;;;23.00;39.50;;;;;;5241402;28;20469;-51
2022/07/28 12:44:52;;;;;;;2.60;1.10;;;23.00;39.90;;;;;;5228120;28;20440;-52
2022/07/28 12:47:26;;;;;;;1.70;1.33;;;23.10;40.00;;;;;;5217124;28;20213;-53
2022/07/28 12:50:15;;;;;;;7.30;1.53;;;23.50;40.30;;;;;;5222133;28;20455;-53
2022/07/28 12:53:09;;;;;;;1.40;1.17;;;23.70;39.60;;;;;;5226849;28;20451;-52
2022/07/28 12:55:44;;;;;;;8.63;2.00;;;23.70;39.20;;;;;;5237313;28;20487;-53
2022/07/28 12:58:22;;;;;;;1.00;1.00;;;23.50;39.00;;;;;;5217034;28;20452;-54
2022/07/28 13:00:54;;;;;;;1.40;1.30;;;23.70;39.30;;;;;;5237006;28;20481;-53
2022/07/28 13:03:27;;;;;;;25.57;5.30;;;23.70;38.50;;;;;;5244101;28;20531;-51
2022/07/28 13:06:09;;;;;;;10.77;3.20;;;23.70;38.60;;;;;;5231647;28;20444;-52
2022/07/28 13:08:44;;;;;;;2.33;1.70;;;23.60;38.90;;;;;;5240760;28;20436;-51
2022/07/28 13:11:15;;;;;;;4.20;1.60;;;23.70;39.10;;;;;;5245089;28;20516;-51
2022/07/28 13:13:55;;;;;;;2.00;1.60;;;23.60;39.10;;;;;;5229002;28;20436;-51
2022/07/28 13:16:27;;;;;;;13.47;1.90;;;23.70;38.80;;;;;;5243357;28;20510;-52
2022/07/28 13:19:02;;;;;;;7.53;3.00;;;23.70;38.40;;;;;;5240770;28;20435;-52
2022/07/28 13:21:44;;;;;;;2.00;1.27;;;23.70;38.90;;;;;;5243883;28;20527;-51